Time;durP1;ratioP1;P1;durP2;ratioP2;P2;SDS_P1;SDS_P2;PMS_P1;PMS_P2;Temp;Humidity;BMP_temperature;BMP_pressure;BME280_temperature;BME280_humidity;BME280_pressure;Samples;Min_cycle;Max_cycle;Signal;HPM_P1;HPM_P2
2022/05/27 00:00:56;;;;;;;1.90;1.13;;;20.60;55.30;;;-142.21;75.35;112049.66;5086604;28;20652;-76
2022/05/27 00:03:23;;;;;;;2.37;1.50;;;20.70;55.40;;;-142.21;75.79;112049.66;5078564;28;20200;-74
2022/05/27 00:05:52;;;;;;;2.13;1.47;;;20.60;55.30;;;-142.21;76.13;112049.66;5076642;28;20320;-74
2022/05/27 00:08:19;;;;;;;1.87;1.73;;;20.60;55.40;;;-142.21;76.44;112049.66;5088212;28;20240;-75
2022/05/27 00:10:47;;;;;;;2.50;1.60;;;20.60;56.20;;;-142.21;76.93;112049.66;5068975;28;20790;-77
2022/05/27 00:13:15;;;;;;;1.77;1.33;;;20.60;55.60;;;-142.21;77.43;112049.66;5073961;28;20233;-76
2022/05/27 00:15:43;;;;;;;1.67;1.27;;;20.50;55.60;;;-142.21;77.49;112049.66;5077101;28;20669;-77
2022/05/27 00:18:10;;;;;;;1.77;1.63;;;20.50;55.70;;;-142.21;77.57;112049.66;5077393;28;20194;-77
2022/05/27 00:20:38;;;;;;;2.43;1.60;;;20.40;56.00;;;-142.21;77.91;112049.66;5074725;28;20196;-77
2022/05/27 00:23:06;;;;;;;2.87;1.70;;;20.40;56.10;;;-142.21;78.55;112049.66;5056989;28;20216;-76
2022/05/27 00:25:33;;;;;;;1.90;1.27;;;20.40;56.20;;;-142.21;78.77;112049.66;5074036;28;20284;-76
2022/05/27 00:28:02;;;;;;;2.30;1.43;;;20.30;56.40;;;-142.21;79.26;112049.66;5082329;28;20483;-76
2022/05/27 00:30:30;;;;;;;1.30;1.17;;;20.30;56.40;;;-142.21;79.60;112049.66;5072167;28;20193;-77
2022/05/27 00:32:57;;;;;;;1.93;1.40;;;20.30;56.40;;;-142.21;79.81;112049.66;5077370;28;20399;-76
2022/05/27 00:35:24;;;;;;;2.77;1.70;;;20.20;56.40;;;-142.21;80.43;112049.66;5079255;28;20220;-76
2022/05/27 00:37:52;;;;;;;2.77;1.47;;;20.20;56.50;;;-142.21;80.71;112049.66;5086797;28;20193;-77
2022/05/27 00:40:21;;;;;;;1.77;1.40;;;20.20;56.60;;;-142.21;80.86;112049.66;5076122;28;20673;-76
2022/05/27 00:42:48;;;;;;;1.93;1.50;;;20.20;56.90;;;-142.21;81.23;112049.66;5071686;28;20223;-77
2022/05/27 00:45:20;;;;;;;1.73;1.63;;;20.20;56.90;;;-142.21;81.92;112049.66;5077039;28;20207;-76
2022/05/27 00:47:55;;;;;;;1.83;1.40;;;20.10;57.10;;;-142.21;82.50;112049.66;5089107;28;20536;-77
2022/05/27 00:50:33;;;;;;;7.60;1.87;;;20.00;57.30;;;-142.21;82.73;112049.66;5075748;28;20196;-77
2022/05/27 00:53:04;;;;;;;2.00;1.37;;;20.00;57.50;;;-142.21;82.98;112049.66;5078282;28;20207;-76
2022/05/27 00:55:37;;;;;;;1.70;1.60;;;20.00;57.40;;;-142.21;83.11;112049.66;5079329;28;20435;-76
2022/05/27 00:58:13;;;;;;;1.67;1.57;;;19.90;57.40;;;-142.21;83.11;112049.66;5083863;28;20186;-76
2022/05/27 01:00:42;;;;;;;2.10;1.63;;;19.90;57.40;;;-142.21;83.63;112049.66;5078653;28;20296;-76
2022/05/27 01:03:14;;;;;;;1.77;1.50;;;19.90;57.40;;;-142.21;84.08;112049.66;5083421;28;20204;-76
2022/05/27 01:05:44;;;;;;;1.60;1.30;;;19.90;57.60;;;-142.21;84.01;112049.66;5085002;28;20481;-76
2022/05/27 01:08:15;;;;;;;1.90;1.50;;;19.80;57.80;;;-142.21;84.31;112049.66;5088980;28;20289;-76
2022/05/27 01:11:12;;;;;;;1.40;1.30;;;19.80;58.00;;;-142.21;84.33;112049.66;5088203;28;20188;-75
2022/05/27 01:13:54;;;;;;;1.40;1.30;;;19.80;58.30;;;-142.21;84.57;112049.66;5077103;28;20194;-77
2022/05/27 01:16:40;;;;;;;1.40;1.30;;;19.80;58.20;;;-142.21;85.18;112049.66;5074894;28;20208;-77
2022/05/27 01:22:45;;;;;;;1.40;1.27;;;19.80;58.40;;;-142.21;85.30;112049.66;5066141;28;20487;-77
2022/05/27 01:26:09;;;;;;;1.90;1.63;;;19.70;58.60;;;-142.21;85.78;112049.66;5076035;28;20190;-76
2022/05/27 01:28:43;;;;;;;2.03;1.40;;;19.70;58.60;;;-142.21;86.12;112049.66;5080839;28;20478;-76
2022/05/27 01:31:32;;;;;;;2.40;1.60;;;19.70;58.40;;;-142.21;86.13;112049.66;5087053;28;20192;-76
2022/05/27 01:34:12;;;;;;;3.00;1.70;;;19.60;58.60;;;-142.21;86.51;112049.66;5080714;28;20477;-76
2022/05/27 01:36:50;;;;;;;1.90;1.70;;;19.50;58.90;;;-142.21;86.49;112049.66;5089422;28;20203;-76
2022/05/27 01:39:28;;;;;;;1.67;1.40;;;19.60;59.70;;;-142.21;86.22;112049.66;5082156;28;20272;-76
2022/05/27 01:42:08;;;;;;;1.80;1.60;;;19.60;59.00;;;-142.21;86.80;112049.66;5077667;28;20942;-75
2022/05/27 01:44:47;;;;;;;2.40;1.80;;;19.60;59.10;;;-142.21;87.18;112049.66;5077804;28;20250;-77
2022/05/27 01:47:23;;;;;;;2.07;1.70;;;19.60;59.20;;;-142.21;87.40;112049.66;5076035;28;20185;-76
2022/05/27 01:50:03;;;;;;;1.57;1.40;;;19.60;59.30;;;-142.21;87.40;112049.66;5076425;28;20208;-76
2022/05/27 01:52:41;;;;;;;2.17;1.40;;;19.60;59.20;;;-142.21;87.95;112049.66;5067852;28;20450;-77
2022/05/27 01:55:14;;;;;;;1.80;1.60;;;19.60;59.30;;;-142.21;87.83;112049.66;5085913;28;20470;-76
2022/05/27 01:57:49;;;;;;;2.17;1.70;;;19.50;59.30;;;-142.21;88.08;112049.66;5076482;28;20272;-77
2022/05/27 02:00:23;;;;;;;1.87;1.77;;;19.50;59.50;;;-142.21;88.50;112049.66;5076955;28;20284;-77
2022/05/27 02:02:59;;;;;;;2.03;1.47;;;19.40;59.50;;;-142.21;88.36;112049.66;5078981;28;20490;-77
2022/05/27 02:05:40;;;;;;;2.50;1.60;;;19.40;59.70;;;-142.21;88.55;112049.66;5078762;28;20227;-76
2022/05/27 02:08:17;;;;;;;1.60;1.50;;;19.50;59.70;;;-142.21;88.75;112049.66;5048647;28;20645;-77
2022/05/27 02:10:54;;;;;;;2.07;1.80;;;19.50;59.70;;;-142.21;88.74;112049.66;5080081;28;20449;-76
2022/05/27 02:13:29;;;;;;;1.83;1.63;;;19.40;59.90;;;-142.21;88.98;112049.66;5043568;28;20530;-78
2022/05/27 02:15:59;;;;;;;4.07;2.10;;;19.40;59.80;;;-142.21;89.12;112049.66;5090055;28;20195;-78
2022/05/27 02:18:35;;;;;;;1.83;1.67;;;19.40;59.80;;;-142.21;89.47;112049.66;5083569;28;20792;-76
2022/05/27 02:21:09;;;;;;;2.57;1.67;;;19.30;60.20;;;-142.21;89.72;112049.66;5092306;28;20582;-77
2022/05/27 02:23:43;;;;;;;1.67;1.57;;;19.20;60.20;;;-142.21;89.76;112049.66;5091404;28;20869;-75
2022/05/27 02:26:19;;;;;;;2.13;1.63;;;19.20;60.50;;;-142.21;89.97;112049.66;5088164;28;20555;-77
2022/05/27 02:28:53;;;;;;;2.37;1.60;;;19.20;60.40;;;-142.21;89.86;112049.66;5080530;28;20462;-77
2022/05/27 02:31:24;;;;;;;2.80;1.63;;;19.20;60.40;;;-142.21;90.35;112049.66;5078584;28;20573;-77
2022/05/27 02:36:52;;;;;;;1.87;1.73;;;19.10;61.10;;;-142.21;90.86;112049.66;5086564;28;20438;-75
2022/05/27 02:39:20;;;;;;;2.23;1.83;;;19.10;61.10;;;-142.21;90.97;112049.66;5077264;28;20443;-74
2022/05/27 02:42:02;;;;;;;2.83;1.60;;;19.10;61.10;;;-142.21;91.28;112049.66;5086952;28;20296;-75
2022/05/27 02:44:50;;;;;;;2.20;1.90;;;19.00;61.60;;;-142.21;91.29;112049.66;5077606;28;20515;-75
2022/05/27 02:47:26;;;;;;;2.07;1.87;;;18.90;61.60;;;-142.21;91.79;112049.66;5072624;28;20449;-75
2022/05/27 02:50:09;;;;;;;2.40;1.47;;;18.80;62.30;;;-142.21;91.74;112049.66;5086297;28;20481;-76
2022/05/27 02:52:48;;;;;;;2.80;1.80;;;18.80;62.30;;;-142.21;91.79;112049.66;5055285;28;20423;-75
2022/05/27 02:55:24;;;;;;;2.13;1.63;;;18.90;62.30;;;-142.21;91.99;112049.66;5058922;28;20438;-76
2022/05/27 02:57:55;;;;;;;2.80;2.10;;;18.90;62.20;;;-142.21;92.33;112049.66;5063959;28;20450;-75
2022/05/27 03:00:26;;;;;;;3.47;1.80;;;18.90;62.60;;;-142.21;92.37;112049.66;5075694;28;20276;-75
2022/05/27 03:02:59;;;;;;;2.57;1.63;;;18.90;62.40;;;-142.21;92.32;112049.66;5088442;28;20466;-75
2022/05/27 03:05:37;;;;;;;3.23;1.83;;;18.90;62.60;;;-142.21;92.29;112049.66;5084704;28;20374;-75
2022/05/27 03:08:19;;;;;;;2.03;1.73;;;18.90;62.50;;;-142.21;92.35;112049.66;5079745;28;20665;-75
2022/05/27 03:11:04;;;;;;;2.10;1.90;;;18.90;62.80;;;-142.21;92.76;112049.66;5081977;28;20186;-76
2022/05/27 03:14:13;;;;;;;3.03;2.20;;;18.80;62.90;;;-142.21;92.90;112049.66;5086148;28;20440;-75
2022/05/27 03:16:58;;;;;;;4.37;1.80;;;18.90;63.00;;;-142.21;93.31;112049.66;5072767;28;20460;-76
2022/05/27 03:19:50;;;;;;;2.20;2.00;;;18.80;62.90;;;-142.21;93.69;112049.66;5086476;28;20431;-74
2022/05/27 03:22:36;;;;;;;3.13;2.10;;;18.80;63.30;;;-142.21;93.53;112049.66;5086644;28;20449;-74
2022/05/27 03:25:19;;;;;;;2.00;1.80;;;18.80;63.10;;;-142.21;93.61;112049.66;5088553;28;20431;-74
2022/05/27 03:28:01;;;;;;;2.47;2.17;;;18.90;63.00;;;-142.21;93.61;112049.66;5073920;28;20449;-75
2022/05/27 03:30:36;;;;;;;4.53;2.10;;;18.90;62.80;;;-142.21;93.98;112049.66;5077498;28;20431;-75
2022/05/27 03:33:18;;;;;;;2.47;2.17;;;18.90;62.90;;;-142.21;94.24;112049.66;5088918;28;20505;-75
2022/05/27 03:35:54;;;;;;;4.27;1.90;;;18.90;63.20;;;-142.21;94.17;112049.66;5072096;28;20798;-74
2022/05/27 03:38:31;;;;;;;1.97;1.87;;;18.80;63.20;;;-142.21;94.13;112049.66;5077053;28;20435;-75
2022/05/27 03:41:08;;;;;;;2.90;2.43;;;18.90;63.10;;;-142.21;94.55;112049.66;5054948;28;20450;-75
2022/05/27 03:43:38;;;;;;;2.53;2.10;;;18.80;63.40;;;-142.21;94.88;112049.66;5079089;28;20521;-75
2022/05/27 03:46:06;;;;;;;3.17;2.47;;;18.80;63.70;;;-142.21;95.26;112049.66;5081779;28;20476;-76
2022/05/27 03:48:36;;;;;;;3.90;2.40;;;18.70;63.70;;;-142.21;95.48;112049.66;5087163;28;20517;-76
2022/05/27 03:51:13;;;;;;;4.40;2.40;;;18.70;64.10;;;-142.21;95.28;112049.66;5090332;28;20874;-75
2022/05/27 03:56:26;;;;;;;4.03;2.50;;;18.70;64.70;;;-142.21;95.62;112049.66;5079446;28;20520;-75
2022/05/27 03:58:53;;;;;;;2.77;2.10;;;18.60;64.40;;;-142.21;95.95;112049.66;5077127;28;20447;-76
2022/05/27 04:01:25;;;;;;;2.73;2.03;;;18.70;64.60;;;-142.21;95.91;112049.66;5087434;28;20451;-74
2022/05/27 04:03:52;;;;;;;3.00;2.07;;;18.70;64.80;;;-142.21;96.17;112049.66;5075164;28;20512;-76
2022/05/27 04:06:19;;;;;;;2.83;2.53;;;18.70;64.90;;;-142.21;96.48;112049.66;5074915;28;20574;-74
2022/05/27 04:08:48;;;;;;;3.00;2.40;;;18.60;65.50;;;-142.21;96.31;112049.66;5074152;28;20520;-74
2022/05/27 04:11:15;;;;;;;2.90;2.30;;;18.50;65.70;;;-142.21;96.18;112049.66;5078510;28;20530;-75
2022/05/27 04:13:45;;;;;;;2.60;2.40;;;18.50;65.90;;;-142.21;96.20;112049.66;5087020;28;21014;-74
2022/05/27 04:16:12;;;;;;;3.80;2.30;;;18.50;65.90;;;-142.21;96.15;112049.66;5065893;28;20798;-75
2022/05/27 04:18:39;;;;;;;2.87;2.40;;;18.40;66.20;;;-142.21;96.03;112049.66;5083200;28;20801;-75
2022/05/27 04:21:06;;;;;;;3.87;2.37;;;18.30;66.50;;;-142.21;95.72;112049.66;5079162;28;20802;-76
2022/05/27 04:23:34;;;;;;;3.80;2.70;;;18.30;66.40;;;-142.21;95.33;112049.66;5081272;28;20447;-75
2022/05/27 04:26:02;;;;;;;8.07;2.90;;;18.40;65.90;;;-142.21;94.99;112049.66;5071718;28;20940;-76
2022/05/27 04:28:29;;;;;;;3.90;2.77;;;18.50;65.80;;;-142.21;94.97;112049.66;5077035;28;20445;-75
2022/05/27 04:30:57;;;;;;;3.97;2.83;;;18.60;65.80;;;-142.21;94.34;112049.66;5083357;28;20536;-74
2022/05/27 04:33:24;;;;;;;3.37;2.73;;;18.50;65.80;;;-142.21;94.41;112049.66;5088652;28;20474;-76
2022/05/27 04:35:51;;;;;;;3.40;3.10;;;18.50;66.00;;;-142.21;94.54;112049.66;5079684;28;20805;-77
2022/05/27 04:38:18;;;;;;;3.37;2.90;;;18.40;66.10;;;-142.21;94.12;112049.66;5086501;28;20210;-75
2022/05/27 04:40:45;;;;;;;5.53;3.07;;;18.40;65.80;;;-142.21;93.89;112049.66;5087816;28;20284;-75
2022/05/27 04:43:14;;;;;;;4.70;3.27;;;18.50;65.70;;;-142.21;94.00;112049.66;5076986;28;20479;-74
2022/05/27 04:45:41;;;;;;;3.77;2.83;;;18.50;65.60;;;-142.21;93.90;112049.66;5085047;28;20443;-75
2022/05/27 04:48:10;;;;;;;3.37;2.80;;;18.60;65.50;;;-142.21;94.21;112049.66;5072791;28;20458;-75
2022/05/27 04:50:38;;;;;;;3.27;2.97;;;18.60;65.40;;;-142.21;93.53;112049.66;5089678;28;20474;-75
2022/05/27 04:53:06;;;;;;;4.87;3.60;;;18.70;65.10;;;-142.21;94.19;112049.66;5090989;28;20458;-75
2022/05/27 04:55:35;;;;;;;3.23;2.93;;;18.80;64.90;;;-142.21;93.23;112049.66;5085993;28;20447;-75
2022/05/27 04:58:03;;;;;;;3.77;3.00;;;18.80;64.50;;;-142.21;93.50;112049.66;5081524;28;20986;-76
2022/05/27 05:00:34;;;;;;;4.13;3.20;;;18.70;64.70;;;-142.21;93.40;112049.66;5088837;28;20469;-74
2022/05/27 05:03:01;;;;;;;2.60;2.40;;;18.80;64.80;;;-142.21;93.36;112049.66;5083501;28;20527;-75
2022/05/27 05:05:32;;;;;;;3.07;2.47;;;18.70;64.70;;;-142.21;93.52;112049.66;5081628;28;21080;-74
2022/05/27 05:08:03;;;;;;;2.83;2.53;;;18.70;65.20;;;-142.21;93.75;112049.66;5089389;28;20193;-75
2022/05/27 05:10:32;;;;;;;3.60;2.73;;;18.70;65.20;;;-142.21;93.79;112049.66;5093524;28;20474;-75
2022/05/27 05:12:59;;;;;;;4.80;2.40;;;18.70;65.00;;;-142.21;93.71;112049.66;5089171;28;20619;-75
2022/05/27 05:15:28;;;;;;;3.77;3.10;;;18.80;64.80;;;-142.21;93.64;112049.66;5085341;28;20454;-76
2022/05/27 05:17:57;;;;;;;3.87;2.87;;;18.80;64.60;;;-142.21;93.72;112049.66;5083709;28;20533;-74
2022/05/27 05:20:29;;;;;;;3.73;2.60;;;18.80;64.60;;;-142.21;93.53;112049.66;5090235;28;20442;-74
2022/05/27 05:22:56;;;;;;;3.40;2.77;;;18.80;64.70;;;-142.21;93.70;112049.66;5088281;28;20442;-76
2022/05/27 05:25:25;;;;;;;3.70;3.10;;;18.80;64.70;;;-142.21;93.77;112049.66;5081730;28;20849;-75
2022/05/27 05:27:53;;;;;;;3.07;2.80;;;18.70;65.00;;;-142.21;93.69;112049.66;5073110;28;20824;-76
2022/05/27 05:30:25;;;;;;;3.13;2.83;;;18.70;65.30;;;-142.21;93.66;112049.66;5078034;28;21016;-75
2022/05/27 05:32:52;;;;;;;3.10;2.73;;;18.70;65.40;;;-142.21;93.95;112049.66;5081582;28;20481;-75
2022/05/27 05:35:22;;;;;;;3.40;2.80;;;18.70;65.20;;;-142.21;94.00;112049.66;5090938;28;20446;-75
2022/05/27 05:37:50;;;;;;;3.73;3.07;;;18.80;65.20;;;-142.21;94.23;112049.66;5081170;28;20836;-76
2022/05/27 05:40:18;;;;;;;2.80;2.60;;;18.80;65.10;;;-142.21;94.22;112049.66;5076780;28;20530;-76
2022/05/27 05:42:47;;;;;;;3.70;2.80;;;18.80;65.10;;;-142.21;93.94;112049.66;5088228;28;20645;-75
2022/05/27 05:45:17;;;;;;;5.90;2.83;;;18.90;64.90;;;-142.21;94.27;112049.66;5073476;28;20448;-74
2022/05/27 05:47:45;;;;;;;3.70;2.87;;;18.90;65.20;;;-142.21;94.70;112049.66;5085857;28;20491;-76
2022/05/27 05:50:14;;;;;;;3.47;2.70;;;18.90;65.10;;;-142.21;94.53;112049.66;5090198;28;20532;-75
2022/05/27 05:52:43;;;;;;;4.70;3.00;;;19.00;65.00;;;-142.21;94.45;112049.66;5074958;28;20201;-75
2022/05/27 05:55:12;;;;;;;4.77;2.57;;;19.10;64.90;;;-142.21;94.59;112049.66;5089431;28;20447;-74
2022/05/27 05:57:42;;;;;;;3.47;2.57;;;19.10;65.00;;;-142.21;94.62;112049.66;5077558;28;20450;-76
2022/05/27 06:00:12;;;;;;;5.23;3.00;;;19.10;64.90;;;-142.21;94.58;112049.66;5086081;28;20204;-74
2022/05/27 06:02:40;;;;;;;3.80;2.43;;;19.10;64.90;;;-142.21;94.54;112049.66;5076937;28;20822;-75
2022/05/27 06:05:09;;;;;;;3.70;2.60;;;19.10;64.70;;;-142.21;94.22;112049.66;5080894;28;20327;-76
2022/05/27 06:07:37;;;;;;;4.47;2.73;;;19.20;64.70;;;-142.21;94.43;112049.66;5083517;28;20858;-76
2022/05/27 06:10:08;;;;;;;3.67;2.90;;;19.10;64.70;;;-142.21;94.05;112049.66;5084802;28;20486;-75
2022/05/27 06:12:37;;;;;;;3.53;2.60;;;19.10;64.90;;;-142.21;94.18;112049.66;5085117;28;20514;-74
2022/05/27 06:15:09;;;;;;;3.20;2.30;;;19.00;65.70;;;-142.21;93.87;112049.66;5076082;28;20609;-76
2022/05/27 06:17:37;;;;;;;4.47;2.87;;;19.00;64.80;;;-142.21;94.07;112049.66;5078758;28;20284;-75
2022/05/27 06:20:06;;;;;;;3.60;2.43;;;19.00;64.80;;;-142.21;93.83;112049.66;5085730;28;20684;-75
2022/05/27 06:22:34;;;;;;;2.77;2.50;;;19.00;64.80;;;-142.21;93.74;112049.66;5074819;28;20454;-75
2022/05/27 06:25:01;;;;;;;3.27;2.80;;;19.00;64.60;;;-142.21;93.40;112049.66;5072074;28;20542;-75
2022/05/27 06:27:30;;;;;;;2.83;2.40;;;19.10;64.70;;;-142.21;93.55;112049.66;5091572;28;20525;-76
2022/05/27 06:35:37;;;;;;;2.80;2.60;;;19.20;64.10;;;-142.21;92.48;112049.66;5085627;28;20432;-76
2022/05/27 06:38:04;;;;;;;4.50;2.60;;;19.30;63.70;;;-142.21;92.41;112049.66;5070023;28;20642;-76
2022/05/27 06:40:31;;;;;;;3.97;2.73;;;19.30;63.50;;;-142.21;92.01;112049.66;5079091;28;20446;-75
2022/05/27 06:43:00;;;;;;;5.27;2.23;;;19.20;63.50;;;-142.21;91.19;112049.66;5075961;28;20209;-76
2022/05/27 06:45:27;;;;;;;2.37;2.17;;;19.20;63.10;;;-142.21;91.26;112049.66;5078517;28;20537;-75
2022/05/27 06:47:55;;;;;;;3.07;2.40;;;19.20;63.40;;;-142.21;90.34;112049.66;5085195;28;20470;-74
2022/05/27 06:50:22;;;;;;;2.70;2.50;;;19.10;62.90;;;-142.21;90.67;112049.66;5093084;28;20496;-75
2022/05/27 06:52:52;;;;;;;3.13;2.30;;;19.10;63.30;;;-142.21;90.97;112049.66;5091983;28;20295;-75
2022/05/27 06:55:20;;;;;;;3.00;2.50;;;19.20;63.20;;;-142.21;90.28;112049.66;5076219;28;20455;-77
2022/05/27 06:57:47;;;;;;;2.93;2.70;;;19.20;63.00;;;-142.21;90.21;112049.66;5072039;28;20466;-75
2022/05/27 07:00:17;;;;;;;4.07;2.40;;;19.30;63.60;;;-142.21;90.14;112049.66;5072316;28;20882;-76
2022/05/27 07:02:44;;;;;;;4.03;2.23;;;19.30;62.40;;;-142.21;90.04;112049.66;5071849;28;20201;-75
2022/05/27 07:05:11;;;;;;;4.40;2.63;;;19.30;62.30;;;-142.21;90.10;112049.66;5072481;28;20486;-75
2022/05/27 07:07:39;;;;;;;3.00;2.70;;;19.30;62.50;;;-142.21;91.02;112049.66;5070812;28;20447;-75
2022/05/27 07:10:08;;;;;;;3.00;2.70;;;19.10;63.80;;;-142.21;90.81;112049.66;5072337;28;20629;-76
2022/05/27 07:12:37;;;;;;;3.07;2.77;;;19.20;63.20;;;-142.21;90.72;112049.66;5072422;28;20538;-74
2022/05/27 07:15:05;;;;;;;6.30;3.20;;;19.20;63.30;;;-142.21;90.83;112049.66;5071334;28;20229;-76
2022/05/27 07:17:35;;;;;;;3.00;2.50;;;19.20;63.40;;;-142.21;90.33;112049.66;5071272;28;20518;-76
2022/05/27 07:20:04;;;;;;;3.13;2.07;;;19.20;63.20;;;-142.21;90.63;112049.66;5072574;28;20201;-76
2022/05/27 07:22:31;;;;;;;3.20;2.30;;;19.20;63.20;;;-142.21;90.83;112049.66;5071749;28;20526;-77
2022/05/27 07:24:58;;;;;;;3.17;2.80;;;19.20;63.20;;;-142.21;89.82;112049.66;5072287;28;20443;-76
2022/05/27 07:27:25;;;;;;;3.17;2.37;;;19.10;62.80;;;-142.21;89.15;112049.66;5081815;28;20576;-76
2022/05/27 07:29:52;;;;;;;2.23;2.03;;;19.10;62.70;;;-142.21;89.35;112049.66;5055506;28;20224;-75
2022/05/27 07:32:19;;;;;;;2.47;2.20;;;19.10;62.80;;;-142.21;89.17;112049.66;5074050;28;20221;-76
2022/05/27 07:34:48;;;;;;;2.60;2.40;;;19.10;62.50;;;-142.21;88.06;112049.66;5072168;28;20215;-77
2022/05/27 07:37:15;;;;;;;2.80;2.00;;;19.20;62.00;;;-142.21;88.33;112049.66;5074301;28;20197;-76
2022/05/27 07:39:42;;;;;;;2.87;2.50;;;19.30;61.80;;;-142.21;87.82;112049.66;5090340;28;20204;-75
2022/05/27 07:42:10;;;;;;;3.83;3.00;;;19.30;61.40;;;-142.21;88.05;112049.66;5089617;28;20236;-74
2022/05/27 07:44:37;;;;;;;3.60;2.40;;;19.20;61.70;;;-142.21;88.75;112049.66;5071078;28;20455;-76
2022/05/27 07:47:05;;;;;;;2.60;2.40;;;19.10;62.20;;;-142.21;88.94;112049.66;5072004;28;20534;-75
2022/05/27 07:49:33;;;;;;;3.40;2.70;;;19.10;62.40;;;-142.21;88.76;112049.66;5071355;28;20671;-75
2022/05/27 07:52:02;;;;;;;2.60;2.40;;;19.20;62.40;;;-142.21;88.54;112049.66;5071518;28;20439;-75
2022/05/27 07:54:30;;;;;;;2.67;2.47;;;19.30;62.00;;;-142.21;88.98;112049.66;5072033;28;20606;-76
2022/05/27 07:56:58;;;;;;;3.80;3.10;;;19.40;62.00;;;-142.21;88.90;112049.66;5071871;28;20463;-74
2022/05/27 07:59:25;;;;;;;3.00;2.43;;;19.40;62.00;;;-142.21;89.18;112049.66;5071364;28;20296;-75
2022/05/27 08:01:52;;;;;;;3.23;2.57;;;19.40;62.00;;;-142.21;89.06;112049.66;5071475;28;20205;-76
2022/05/27 08:04:20;;;;;;;2.73;2.53;;;19.50;61.60;;;-142.21;89.15;112049.66;5071358;28;20491;-75
2022/05/27 08:06:47;;;;;;;2.87;2.37;;;19.40;61.90;;;-142.21;89.36;112049.66;5071155;28;20456;-75
2022/05/27 08:09:16;;;;;;;3.07;2.70;;;19.30;62.20;;;-142.21;89.82;112049.66;5071730;28;20208;-76
2022/05/27 08:11:43;;;;;;;2.83;2.50;;;19.30;62.70;;;-142.21;90.17;112049.66;5071069;28;20229;-75
2022/05/27 08:14:10;;;;;;;2.57;2.30;;;19.20;63.00;;;-142.21;90.62;112049.66;5071806;28;20328;-76
2022/05/27 08:16:39;;;;;;;3.23;2.37;;;19.30;63.20;;;-142.21;90.51;112049.66;5070962;28;20600;-75
2022/05/27 08:19:06;;;;;;;3.30;3.00;;;19.30;62.90;;;-142.21;90.70;112049.66;5071796;28;20451;-75
2022/05/27 08:21:36;;;;;;;3.20;2.90;;;19.30;62.90;;;-142.21;91.21;112049.66;5070999;28;20439;-74
2022/05/27 08:24:03;;;;;;;3.40;2.90;;;19.40;63.30;;;-142.21;90.92;112049.66;5074819;28;20291;-75
2022/05/27 08:26:32;;;;;;;2.77;2.53;;;19.40;63.30;;;-142.21;90.40;112049.66;5075791;28;20443;-76
2022/05/27 08:28:59;;;;;;;3.53;3.00;;;19.50;63.30;;;-142.21;90.33;112049.66;5075658;28;20205;-75
2022/05/27 08:31:26;;;;;;;3.97;3.03;;;19.50;63.20;;;-142.21;89.97;112049.66;5075606;28;20483;-75
2022/05/27 08:39:22;;;;;;;4.47;3.30;;;19.50;63.80;;;-142.21;89.99;112049.66;5045320;28;20208;-75
2022/05/27 08:42:12;;;;;;;3.37;3.03;;;19.50;63.40;;;-142.21;89.83;112049.66;5074448;28;20447;-74
2022/05/27 08:44:52;;;;;;;3.50;2.60;;;19.70;63.40;;;-142.21;88.86;112049.66;5075044;28;20454;-75
2022/05/27 08:47:29;;;;;;;3.17;2.60;;;19.70;62.80;;;-142.21;89.07;112049.66;5074005;28;20213;-75
2022/05/27 08:50:12;;;;;;;4.03;2.47;;;19.80;63.00;;;-142.21;87.79;112049.66;5074634;28;20219;-75
2022/05/27 08:52:45;;;;;;;2.97;2.30;;;19.90;62.10;;;-142.21;87.33;112049.66;5074396;28;20457;-75
2022/05/27 09:01:15;;;;;;;2.40;2.07;;;20.00;60.90;;;-142.21;84.94;112049.66;5074919;28;20555;-75
2022/05/27 09:03:52;;;;;;;2.60;1.90;;;20.10;60.80;;;-142.21;83.08;112049.66;5074453;28;20210;-76
2022/05/27 09:06:31;;;;;;;3.50;2.37;;;20.20;59.70;;;-142.21;82.91;112049.66;5074627;28;20240;-75
2022/05/27 09:08:59;;;;;;;2.30;2.10;;;20.30;59.50;;;-142.21;83.39;112049.66;5075512;28;20575;-74
2022/05/27 09:11:40;;;;;;;2.30;2.10;;;20.30;59.80;;;-142.21;82.97;112049.66;5074686;28;20225;-74
2022/05/27 09:14:16;;;;;;;8.60;2.47;;;20.40;59.80;;;-142.21;82.40;112049.66;5074606;28;20280;-75
2022/05/27 09:16:55;;;;;;;2.40;2.20;;;20.40;59.60;;;-142.21;81.61;112049.66;5074482;28;20193;-76
2022/05/27 09:19:30;;;;;;;3.37;2.40;;;20.50;59.30;;;-142.21;81.94;112049.66;5073713;28;20185;-74
2022/05/27 09:22:13;;;;;;;3.27;2.00;;;20.50;59.30;;;-142.21;82.13;112049.66;5077830;28;20724;-73
2022/05/27 09:24:56;;;;;;;2.30;1.90;;;20.50;59.40;;;-142.21;80.26;112049.66;5073803;28;20193;-74
2022/05/27 09:27:37;;;;;;;2.30;2.10;;;20.60;58.50;;;-142.21;80.88;112049.66;5077811;28;20197;-75
2022/05/27 09:30:09;;;;;;;2.40;1.90;;;20.70;59.00;;;-142.21;75.92;112049.66;5075057;28;20193;-76
2022/05/27 09:32:48;;;;;;;4.10;1.90;;;20.80;57.10;;;-142.21;75.83;112049.66;5072922;28;20217;-75
2022/05/27 09:35:22;;;;;;;1.97;1.77;;;20.90;57.30;;;-142.21;72.78;112049.66;5080180;28;20192;-77
2022/05/27 09:37:54;;;;;;;1.90;1.80;;;21.00;56.00;;;-142.21;70.16;112049.66;5091267;28;20192;-76
2022/05/27 09:40:32;;;;;;;1.93;1.70;;;21.10;55.70;;;-142.21;71.69;112049.66;5080397;28;20224;-76
2022/05/27 09:43:10;;;;;;;2.10;1.90;;;21.00;55.70;;;-142.21;70.66;112049.66;5084027;28;20279;-76
2022/05/27 09:45:40;;;;;;;1.80;1.53;;;21.20;55.40;;;-142.21;71.56;112049.66;5075682;28;20207;-77
2022/05/27 09:48:10;;;;;;;2.03;1.90;;;21.30;55.60;;;-142.21;73.65;112049.66;5087669;28;20211;-75
2022/05/27 09:50:41;;;;;;;3.93;2.20;;;21.30;56.30;;;-142.21;73.42;112049.66;5083351;28;20227;-75
2022/05/27 09:53:14;;;;;;;1.97;1.80;;;21.40;56.20;;;-142.21;73.68;112049.66;5089114;28;20197;-76
2022/05/27 09:55:53;;;;;;;2.20;2.00;;;21.40;56.10;;;-142.21;73.92;112049.66;5086947;28;20221;-75
2022/05/27 09:58:26;;;;;;;3.30;1.70;;;21.40;56.10;;;-142.21;72.07;112049.66;5066089;28;20533;-76
2022/05/27 10:00:55;;;;;;;2.27;1.90;;;21.50;55.50;;;-142.21;73.15;112049.66;5085451;28;20227;-76
2022/05/27 10:03:33;;;;;;;4.17;2.20;;;21.40;55.80;;;-142.21;73.51;112049.66;5082876;28;20288;-75
2022/05/27 10:06:05;;;;;;;3.17;1.93;;;21.40;56.20;;;-142.21;73.33;112049.66;5082351;28;20725;-76
2022/05/27 10:08:38;;;;;;;2.40;2.20;;;21.50;56.10;;;-142.21;72.38;112049.66;5073586;28;20275;-75
2022/05/27 10:11:21;;;;;;;2.77;2.47;;;21.70;56.10;;;-142.21;71.74;112049.66;5087122;28;20299;-75
2022/05/27 10:13:50;;;;;;;3.57;2.00;;;21.70;55.70;;;-142.21;71.47;112049.66;5093239;28;20590;-77
2022/05/27 10:16:27;;;;;;;2.17;1.97;;;21.70;55.80;;;-142.21;69.83;112049.66;5088323;28;20243;-76
2022/05/27 10:19:10;;;;;;;2.83;2.00;;;21.80;55.30;;;-142.21;68.28;112049.66;5093129;28;20275;-76
2022/05/27 10:21:55;;;;;;;2.27;2.03;;;21.90;54.80;;;-142.21;69.04;112049.66;5076357;28;20638;-76
2022/05/27 10:24:27;;;;;;;2.30;2.10;;;21.80;54.80;;;-142.21;69.14;112049.66;5073268;28;20200;-76
2022/05/27 10:27:10;;;;;;;2.60;2.10;;;21.80;55.30;;;-142.21;68.25;112049.66;5077619;28;20640;-76
2022/05/27 10:29:52;;;;;;;2.23;2.03;;;22.00;54.90;;;-142.21;67.91;112049.66;5073462;28;20637;-76
2022/05/27 10:32:33;;;;;;;2.00;1.90;;;22.30;54.80;;;-142.21;66.50;112049.66;5057892;28;20224;-76
2022/05/27 10:35:02;;;;;;;3.27;2.10;;;22.40;54.20;;;-142.21;62.48;112049.66;5090791;28;20232;-76
2022/05/27 10:37:53;;;;;;;4.97;2.13;;;22.40;52.70;;;-142.21;63.78;112049.66;5043506;28;20280;-75
2022/05/27 10:40:38;;;;;;;3.17;2.30;;;22.30;53.10;;;-142.21;62.16;112049.66;5076033;28;20657;-76
2022/05/27 10:43:24;;;;;;;2.33;2.00;;;22.40;52.90;;;-142.21;61.09;112049.66;5088696;28;20216;-75
2022/05/27 10:45:55;;;;;;;2.13;1.90;;;22.50;52.50;;;-142.21;60.93;112049.66;5072877;28;20572;-74
2022/05/27 10:49:16;;;;;;;2.10;1.90;;;22.60;52.60;;;-142.21;61.15;112049.66;5057138;28;20277;-75